sensor_id;sensor_type;location;lat;lon;timestamp;P1;durP1;ratioP1;P2;durP2;ratioP2
65759;SDS011;52496;51.082;5.066;2022-11-12T00:02:19;22.13;;;14.55;;
65759;SDS011;52496;51.082;5.066;2022-11-12T00:04:49;27.17;;;14.38;;
65759;SDS011;52496;51.082;5.066;2022-11-12T00:07:20;25.75;;;16.33;;
65759;SDS011;52496;51.082;5.066;2022-11-12T00:09:50;27.23;;;15.68;;
65759;SDS011;52496;51.082;5.066;2022-11-12T00:12:21;22.88;;;15.27;;
65759;SDS011;52496;51.082;5.066;2022-11-12T00:14:51;25.33;;;15.98;;
65759;SDS011;52496;51.082;5.066;2022-11-12T00:17:22;22.60;;;15.05;;
65759;SDS011;52496;51.082;5.066;2022-11-12T00:19:53;22.95;;;15.95;;
65759;SDS011;52496;51.082;5.066;2022-11-12T00:22:24;24.92;;;15.48;;
65759;SDS011;52496;51.082;5.066;2022-11-12T00:24:54;26.33;;;15.25;;
65759;SDS011;52496;51.082;5.066;2022-11-12T00:27:25;27.58;;;16.48;;
65759;SDS011;52496;51.082;5.066;2022-11-12T00:29:55;30.48;;;17.05;;
65759;SDS011;52496;51.082;5.066;2022-11-12T00:32:26;29.75;;;16.48;;
65759;SDS011;52496;51.082;5.066;2022-11-12T00:34:57;24.90;;;15.75;;
65759;SDS011;52496;51.082;5.066;2022-11-12T00:37:27;28.80;;;16.30;;
65759;SDS011;52496;51.082;5.066;2022-11-12T00:39:58;29.55;;;17.08;;
65759;SDS011;52496;51.082;5.066;2022-11-12T00:42:28;29.35;;;15.85;;
65759;SDS011;52496;51.082;5.066;2022-11-12T00:44:59;27.60;;;16.30;;
65759;SDS011;52496;51.082;5.066;2022-11-12T00:47:29;26.30;;;16.20;;
65759;SDS011;52496;51.082;5.066;2022-11-12T00:50:00;25.80;;;14.98;;
65759;SDS011;52496;51.082;5.066;2022-11-12T00:52:30;25.27;;;14.68;;
65759;SDS011;52496;51.082;5.066;2022-11-12T00:55:01;23.73;;;15.55;;
65759;SDS011;52496;51.082;5.066;2022-11-12T00:57:31;29.50;;;16.98;;
65759;SDS011;52496;51.082;5.066;2022-11-12T01:00:03;29.77;;;17.50;;
65759;SDS011;52496;51.082;5.066;2022-11-12T01:02:35;28.83;;;16.88;;
65759;SDS011;52496;51.082;5.066;2022-11-12T01:05:05;22.83;;;14.50;;
65759;SDS011;52496;51.082;5.066;2022-11-12T01:07:36;25.23;;;15.30;;
65759;SDS011;52496;51.082;5.066;2022-11-12T01:10:07;26.27;;;15.20;;
65759;SDS011;52496;51.082;5.066;2022-11-12T01:12:39;22.38;;;14.52;;
65759;SDS011;52496;51.082;5.066;2022-11-12T01:15:10;23.27;;;15.10;;
65759;SDS011;52496;51.082;5.066;2022-11-12T01:17:40;24.40;;;15.13;;
65759;SDS011;52496;51.082;5.066;2022-11-12T01:20:11;23.83;;;15.07;;
65759;SDS011;52496;51.082;5.066;2022-11-12T01:22:41;21.00;;;13.32;;
65759;SDS011;52496;51.082;5.066;2022-11-12T01:25:12;24.77;;;14.38;;
65759;SDS011;52496;51.082;5.066;2022-11-12T01:27:42;22.98;;;13.25;;
65759;SDS011;52496;51.082;5.066;2022-11-12T01:30:13;25.13;;;12.82;;
65759;SDS011;52496;51.082;5.066;2022-11-12T01:32:43;27.75;;;14.27;;
65759;SDS011;52496;51.082;5.066;2022-11-12T01:35:14;23.08;;;13.82;;
65759;SDS011;52496;51.082;5.066;2022-11-12T01:37:44;20.77;;;13.80;;
65759;SDS011;52496;51.082;5.066;2022-11-12T01:40:15;22.40;;;13.05;;
65759;SDS011;52496;51.082;5.066;2022-11-12T01:42:50;24.02;;;14.00;;
65759;SDS011;52496;51.082;5.066;2022-11-12T01:45:21;22.52;;;13.25;;
65759;SDS011;52496;51.082;5.066;2022-11-12T01:47:52;21.85;;;12.55;;
65759;SDS011;52496;51.082;5.066;2022-11-12T01:50:24;24.00;;;14.63;;
65759;SDS011;52496;51.082;5.066;2022-11-12T01:53:01;27.98;;;14.75;;
65759;SDS011;52496;51.082;5.066;2022-11-12T01:55:35;22.13;;;13.38;;
65759;SDS011;52496;51.082;5.066;2022-11-12T01:58:07;23.02;;;13.82;;
65759;SDS011;52496;51.082;5.066;2022-11-12T02:00:41;22.42;;;13.90;;
65759;SDS011;52496;51.082;5.066;2022-11-12T02:03:13;24.42;;;13.30;;
65759;SDS011;52496;51.082;5.066;2022-11-12T02:05:48;23.98;;;14.07;;
65759;SDS011;52496;51.082;5.066;2022-11-12T02:08:23;20.95;;;13.73;;
65759;SDS011;52496;51.082;5.066;2022-11-12T02:10:56;24.77;;;14.00;;
65759;SDS011;52496;51.082;5.066;2022-11-12T02:13:26;22.90;;;14.35;;
65759;SDS011;52496;51.082;5.066;2022-11-12T02:16:15;21.42;;;13.18;;
65759;SDS011;52496;51.082;5.066;2022-11-12T02:18:46;23.55;;;13.82;;
65759;SDS011;52496;51.082;5.066;2022-11-12T02:21:23;21.50;;;13.68;;
65759;SDS011;52496;51.082;5.066;2022-11-12T02:23:58;24.40;;;14.35;;
65759;SDS011;52496;51.082;5.066;2022-11-12T02:26:36;22.63;;;15.50;;
65759;SDS011;52496;51.082;5.066;2022-11-12T02:29:11;24.08;;;14.70;;
65759;SDS011;52496;51.082;5.066;2022-11-12T02:31:41;23.95;;;14.40;;
65759;SDS011;52496;51.082;5.066;2022-11-12T02:34:12;23.83;;;14.68;;
65759;SDS011;52496;51.082;5.066;2022-11-12T02:36:46;22.00;;;15.13;;
65759;SDS011;52496;51.082;5.066;2022-11-12T02:39:16;23.67;;;14.85;;
65759;SDS011;52496;51.082;5.066;2022-11-12T02:41:47;23.30;;;14.98;;
65759;SDS011;52496;51.082;5.066;2022-11-12T02:44:18;21.35;;;14.27;;
65759;SDS011;52496;51.082;5.066;2022-11-12T02:46:48;24.35;;;15.20;;
65759;SDS011;52496;51.082;5.066;2022-11-12T02:49:19;26.67;;;15.18;;
65759;SDS011;52496;51.082;5.066;2022-11-12T02:51:49;22.00;;;13.77;;
65759;SDS011;52496;51.082;5.066;2022-11-12T02:54:20;24.98;;;13.95;;
65759;SDS011;52496;51.082;5.066;2022-11-12T02:56:51;20.08;;;13.30;;
65759;SDS011;52496;51.082;5.066;2022-11-12T02:59:21;20.95;;;13.60;;
65759;SDS011;52496;51.082;5.066;2022-11-12T03:01:52;24.33;;;13.93;;
65759;SDS011;52496;51.082;5.066;2022-11-12T03:04:23;20.13;;;13.57;;
65759;SDS011;52496;51.082;5.066;2022-11-12T03:06:53;23.92;;;14.02;;
65759;SDS011;52496;51.082;5.066;2022-11-12T03:09:24;26.40;;;15.10;;
65759;SDS011;52496;51.082;5.066;2022-11-12T03:11:54;20.65;;;13.63;;
65759;SDS011;52496;51.082;5.066;2022-11-12T03:14:24;22.55;;;13.60;;
65759;SDS011;52496;51.082;5.066;2022-11-12T03:16:55;20.35;;;12.50;;
65759;SDS011;52496;51.082;5.066;2022-11-12T03:19:26;23.70;;;14.20;;
65759;SDS011;52496;51.082;5.066;2022-11-12T03:21:56;20.13;;;13.10;;
65759;SDS011;52496;51.082;5.066;2022-11-12T03:24:27;20.73;;;12.88;;
65759;SDS011;52496;51.082;5.066;2022-11-12T03:26:58;25.88;;;14.05;;
65759;SDS011;52496;51.082;5.066;2022-11-12T03:29:28;22.50;;;12.85;;
65759;SDS011;52496;51.082;5.066;2022-11-12T03:31:59;25.02;;;14.45;;
65759;SDS011;52496;51.082;5.066;2022-11-12T03:34:29;21.45;;;13.60;;
65759;SDS011;52496;51.082;5.066;2022-11-12T03:37:00;20.10;;;12.80;;
65759;SDS011;52496;51.082;5.066;2022-11-12T03:39:30;19.42;;;12.90;;
65759;SDS011;52496;51.082;5.066;2022-11-12T03:42:01;21.63;;;12.07;;
65759;SDS011;52496;51.082;5.066;2022-11-12T03:44:32;18.45;;;11.70;;
65759;SDS011;52496;51.082;5.066;2022-11-12T03:47:02;20.77;;;12.52;;
65759;SDS011;52496;51.082;5.066;2022-11-12T03:49:34;19.52;;;12.02;;
65759;SDS011;52496;51.082;5.066;2022-11-12T03:52:04;18.08;;;12.27;;
65759;SDS011;52496;51.082;5.066;2022-11-12T03:54:35;19.05;;;11.85;;
65759;SDS011;52496;51.082;5.066;2022-11-12T03:57:05;19.88;;;11.52;;
65759;SDS011;52496;51.082;5.066;2022-11-12T03:59:36;20.92;;;12.50;;
65759;SDS011;52496;51.082;5.066;2022-11-12T04:02:06;20.30;;;12.43;;
65759;SDS011;52496;51.082;5.066;2022-11-12T04:04:37;22.17;;;12.55;;
65759;SDS011;52496;51.082;5.066;2022-11-12T04:07:26;18.98;;;11.80;;
65759;SDS011;52496;51.082;5.066;2022-11-12T04:10:14;18.17;;;11.85;;
65759;SDS011;52496;51.082;5.066;2022-11-12T04:12:45;19.48;;;11.55;;
65759;SDS011;52496;51.082;5.066;2022-11-12T04:15:35;17.23;;;12.10;;
65759;SDS011;52496;51.082;5.066;2022-11-12T04:18:06;22.67;;;12.40;;
65759;SDS011;52496;51.082;5.066;2022-11-12T04:20:55;19.35;;;11.60;;
65759;SDS011;52496;51.082;5.066;2022-11-12T04:23:44;23.85;;;11.82;;
65759;SDS011;52496;51.082;5.066;2022-11-12T04:26:14;17.60;;;11.23;;
65759;SDS011;52496;51.082;5.066;2022-11-12T04:28:54;21.75;;;11.80;;
65759;SDS011;52496;51.082;5.066;2022-11-12T04:31:43;16.88;;;11.13;;
65759;SDS011;52496;51.082;5.066;2022-11-12T04:34:13;20.13;;;11.40;;
65759;SDS011;52496;51.082;5.066;2022-11-12T04:37:00;20.42;;;11.98;;
65759;SDS011;52496;51.082;5.066;2022-11-12T04:39:31;20.10;;;11.63;;
65759;SDS011;52496;51.082;5.066;2022-11-12T04:42:02;15.80;;;10.43;;
65759;SDS011;52496;51.082;5.066;2022-11-12T04:44:52;15.70;;;10.30;;
65759;SDS011;52496;51.082;5.066;2022-11-12T04:47:40;17.98;;;10.55;;
65759;SDS011;52496;51.082;5.066;2022-11-12T04:50:13;17.77;;;10.38;;
65759;SDS011;52496;51.082;5.066;2022-11-12T04:52:46;17.20;;;10.05;;
65759;SDS011;52496;51.082;5.066;2022-11-12T04:55:16;22.50;;;12.20;;
65759;SDS011;52496;51.082;5.066;2022-11-12T04:57:47;17.58;;;10.93;;
65759;SDS011;52496;51.082;5.066;2022-11-12T05:00:17;18.30;;;10.95;;
65759;SDS011;52496;51.082;5.066;2022-11-12T05:02:48;21.75;;;11.25;;
65759;SDS011;52496;51.082;5.066;2022-11-12T05:05:20;19.40;;;10.75;;
65759;SDS011;52496;51.082;5.066;2022-11-12T05:07:50;20.33;;;11.00;;
65759;SDS011;52496;51.082;5.066;2022-11-12T05:10:21;20.70;;;10.50;;
65759;SDS011;52496;51.082;5.066;2022-11-12T05:12:51;19.10;;;11.15;;
65759;SDS011;52496;51.082;5.066;2022-11-12T05:15:22;15.57;;;10.23;;
65759;SDS011;52496;51.082;5.066;2022-11-12T05:17:53;19.15;;;10.98;;
65759;SDS011;52496;51.082;5.066;2022-11-12T05:20:24;18.85;;;11.27;;
65759;SDS011;52496;51.082;5.066;2022-11-12T05:22:55;17.85;;;11.05;;
65759;SDS011;52496;51.082;5.066;2022-11-12T05:25:25;21.70;;;11.90;;
65759;SDS011;52496;51.082;5.066;2022-11-12T05:27:56;27.55;;;11.52;;
65759;SDS011;52496;51.082;5.066;2022-11-12T05:30:26;17.48;;;10.82;;
65759;SDS011;52496;51.082;5.066;2022-11-12T05:32:57;21.63;;;11.63;;
65759;SDS011;52496;51.082;5.066;2022-11-12T05:35:27;21.63;;;11.50;;
65759;SDS011;52496;51.082;5.066;2022-11-12T05:37:58;21.58;;;12.63;;
65759;SDS011;52496;51.082;5.066;2022-11-12T05:40:28;18.75;;;12.23;;
65759;SDS011;52496;51.082;5.066;2022-11-12T05:42:59;21.42;;;12.77;;
65759;SDS011;52496;51.082;5.066;2022-11-12T05:45:29;22.23;;;11.77;;
65759;SDS011;52496;51.082;5.066;2022-11-12T05:48:00;18.55;;;10.95;;
65759;SDS011;52496;51.082;5.066;2022-11-12T05:50:30;19.90;;;11.60;;
65759;SDS011;52496;51.082;5.066;2022-11-12T05:53:02;22.55;;;12.15;;
65759;SDS011;52496;51.082;5.066;2022-11-12T05:55:33;16.83;;;10.60;;
65759;SDS011;52496;51.082;5.066;2022-11-12T05:58:04;17.35;;;11.27;;
65759;SDS011;52496;51.082;5.066;2022-11-12T06:00:35;18.02;;;10.50;;
65759;SDS011;52496;51.082;5.066;2022-11-12T06:03:08;16.50;;;10.27;;
65759;SDS011;52496;51.082;5.066;2022-11-12T06:05:40;17.50;;;10.52;;
65759;SDS011;52496;51.082;5.066;2022-11-12T06:08:10;17.92;;;11.90;;
65759;SDS011;52496;51.082;5.066;2022-11-12T06:10:41;18.80;;;11.15;;
65759;SDS011;52496;51.082;5.066;2022-11-12T06:13:12;16.48;;;10.15;;
65759;SDS011;52496;51.082;5.066;2022-11-12T06:15:42;19.63;;;10.85;;
65759;SDS011;52496;51.082;5.066;2022-11-12T06:18:13;18.67;;;11.30;;
65759;SDS011;52496;51.082;5.066;2022-11-12T06:20:44;17.60;;;9.45;;
65759;SDS011;52496;51.082;5.066;2022-11-12T06:23:15;16.48;;;9.25;;
65759;SDS011;52496;51.082;5.066;2022-11-12T06:25:45;19.13;;;9.93;;
65759;SDS011;52496;51.082;5.066;2022-11-12T06:28:16;14.57;;;9.38;;
65759;SDS011;52496;51.082;5.066;2022-11-12T06:30:46;16.98;;;9.65;;
65759;SDS011;52496;51.082;5.066;2022-11-12T06:33:17;17.25;;;10.13;;
65759;SDS011;52496;51.082;5.066;2022-11-12T06:35:54;16.45;;;9.80;;
65759;SDS011;52496;51.082;5.066;2022-11-12T06:38:26;18.20;;;9.85;;
65759;SDS011;52496;51.082;5.066;2022-11-12T06:40:57;17.35;;;10.80;;
65759;SDS011;52496;51.082;5.066;2022-11-12T06:43:28;15.57;;;9.73;;
65759;SDS011;52496;51.082;5.066;2022-11-12T06:46:02;18.42;;;9.70;;
65759;SDS011;52496;51.082;5.066;2022-11-12T06:48:34;14.43;;;9.23;;
65759;SDS011;52496;51.082;5.066;2022-11-12T06:51:07;18.25;;;10.73;;
65759;SDS011;52496;51.082;5.066;2022-11-12T06:53:44;17.83;;;10.20;;
65759;SDS011;52496;51.082;5.066;2022-11-12T06:56:15;16.17;;;10.13;;
65759;SDS011;52496;51.082;5.066;2022-11-12T06:58:45;22.10;;;12.95;;
65759;SDS011;52496;51.082;5.066;2022-11-12T07:01:16;18.00;;;10.43;;
65759;SDS011;52496;51.082;5.066;2022-11-12T07:03:49;19.65;;;10.32;;
65759;SDS011;52496;51.082;5.066;2022-11-12T07:06:21;20.80;;;10.60;;
65759;SDS011;52496;51.082;5.066;2022-11-12T07:08:51;15.23;;;9.70;;
65759;SDS011;52496;51.082;5.066;2022-11-12T07:11:22;18.73;;;10.40;;
65759;SDS011;52496;51.082;5.066;2022-11-12T07:13:52;15.82;;;9.02;;
65759;SDS011;52496;51.082;5.066;2022-11-12T07:16:23;17.60;;;9.60;;
65759;SDS011;52496;51.082;5.066;2022-11-12T07:18:54;19.60;;;10.02;;
65759;SDS011;52496;51.082;5.066;2022-11-12T07:21:24;15.43;;;9.75;;
65759;SDS011;52496;51.082;5.066;2022-11-12T07:23:55;15.60;;;9.13;;
65759;SDS011;52496;51.082;5.066;2022-11-12T07:26:26;16.50;;;9.27;;
65759;SDS011;52496;51.082;5.066;2022-11-12T07:28:56;16.70;;;10.40;;
65759;SDS011;52496;51.082;5.066;2022-11-12T07:31:27;17.33;;;10.40;;
65759;SDS011;52496;51.082;5.066;2022-11-12T07:33:58;18.08;;;10.10;;
65759;SDS011;52496;51.082;5.066;2022-11-12T07:36:29;16.80;;;9.45;;
65759;SDS011;52496;51.082;5.066;2022-11-12T07:39:00;18.90;;;9.10;;
65759;SDS011;52496;51.082;5.066;2022-11-12T07:41:31;15.20;;;10.23;;
65759;SDS011;52496;51.082;5.066;2022-11-12T07:44:02;13.30;;;8.90;;
65759;SDS011;52496;51.082;5.066;2022-11-12T07:46:32;14.02;;;8.85;;
65759;SDS011;52496;51.082;5.066;2022-11-12T07:49:03;13.98;;;9.05;;
65759;SDS011;52496;51.082;5.066;2022-11-12T07:51:33;14.68;;;9.30;;
65759;SDS011;52496;51.082;5.066;2022-11-12T07:54:07;16.38;;;9.32;;
65759;SDS011;52496;51.082;5.066;2022-11-12T07:56:38;17.30;;;9.90;;
65759;SDS011;52496;51.082;5.066;2022-11-12T07:59:08;16.42;;;10.52;;
65759;SDS011;52496;51.082;5.066;2022-11-12T08:01:40;16.65;;;9.73;;
65759;SDS011;52496;51.082;5.066;2022-11-12T08:04:10;19.33;;;11.35;;
65759;SDS011;52496;51.082;5.066;2022-11-12T08:06:41;17.52;;;9.85;;
65759;SDS011;52496;51.082;5.066;2022-11-12T08:09:14;17.55;;;10.20;;
65759;SDS011;52496;51.082;5.066;2022-11-12T08:11:45;16.42;;;10.13;;
65759;SDS011;52496;51.082;5.066;2022-11-12T08:14:15;16.58;;;11.23;;
65759;SDS011;52496;51.082;5.066;2022-11-12T08:16:46;18.25;;;13.73;;
65759;SDS011;52496;51.082;5.066;2022-11-12T08:19:17;19.55;;;13.10;;
65759;SDS011;52496;51.082;5.066;2022-11-12T08:21:47;22.23;;;13.23;;
65759;SDS011;52496;51.082;5.066;2022-11-12T08:24:18;21.35;;;14.80;;
65759;SDS011;52496;51.082;5.066;2022-11-12T08:26:49;24.73;;;18.58;;
65759;SDS011;52496;51.082;5.066;2022-11-12T08:29:19;23.95;;;15.13;;
65759;SDS011;52496;51.082;5.066;2022-11-12T08:31:52;20.27;;;12.82;;
65759;SDS011;52496;51.082;5.066;2022-11-12T08:34:22;18.15;;;12.38;;
65759;SDS011;52496;51.082;5.066;2022-11-12T08:36:53;28.63;;;13.75;;
65759;SDS011;52496;51.082;5.066;2022-11-12T08:39:23;17.63;;;11.90;;
65759;SDS011;52496;51.082;5.066;2022-11-12T08:41:54;22.45;;;13.70;;
65759;SDS011;52496;51.082;5.066;2022-11-12T08:44:25;20.35;;;12.32;;
65759;SDS011;52496;51.082;5.066;2022-11-12T08:46:56;17.25;;;11.80;;
65759;SDS011;52496;51.082;5.066;2022-11-12T08:49:28;24.70;;;14.63;;
65759;SDS011;52496;51.082;5.066;2022-11-12T08:51:58;24.10;;;14.80;;
65759;SDS011;52496;51.082;5.066;2022-11-12T08:54:29;22.48;;;13.88;;
65759;SDS011;52496;51.082;5.066;2022-11-12T08:56:59;24.08;;;14.50;;
65759;SDS011;52496;51.082;5.066;2022-11-12T08:59:30;27.27;;;15.77;;
65759;SDS011;52496;51.082;5.066;2022-11-12T09:02:01;23.50;;;14.45;;
65759;SDS011;52496;51.082;5.066;2022-11-12T09:04:31;25.77;;;15.68;;
65759;SDS011;52496;51.082;5.066;2022-11-12T09:07:02;26.88;;;15.82;;
65759;SDS011;52496;51.082;5.066;2022-11-12T09:09:32;22.00;;;15.48;;
65759;SDS011;52496;51.082;5.066;2022-11-12T09:12:03;24.83;;;16.17;;
65759;SDS011;52496;51.082;5.066;2022-11-12T09:14:33;27.02;;;17.13;;
65759;SDS011;52496;51.082;5.066;2022-11-12T09:17:04;26.95;;;18.73;;
65759;SDS011;52496;51.082;5.066;2022-11-12T09:19:34;25.30;;;16.40;;
65759;SDS011;52496;51.082;5.066;2022-11-12T09:22:05;23.48;;;15.32;;
65759;SDS011;52496;51.082;5.066;2022-11-12T09:24:36;24.75;;;14.30;;
65759;SDS011;52496;51.082;5.066;2022-11-12T09:27:07;16.75;;;10.57;;
65759;SDS011;52496;51.082;5.066;2022-11-12T09:29:37;21.20;;;12.23;;
65759;SDS011;52496;51.082;5.066;2022-11-12T09:32:08;16.65;;;10.88;;
65759;SDS011;52496;51.082;5.066;2022-11-12T09:34:38;14.60;;;9.00;;
65759;SDS011;52496;51.082;5.066;2022-11-12T09:37:09;16.33;;;10.52;;
65759;SDS011;52496;51.082;5.066;2022-11-12T09:39:39;13.40;;;7.93;;
65759;SDS011;52496;51.082;5.066;2022-11-12T09:42:16;14.98;;;8.10;;
65759;SDS011;52496;51.082;5.066;2022-11-12T09:47:37;11.38;;;6.88;;
65759;SDS011;52496;51.082;5.066;2022-11-12T09:50:20;14.57;;;7.43;;
65759;SDS011;52496;51.082;5.066;2022-11-12T09:53:17;11.90;;;7.10;;
65759;SDS011;52496;51.082;5.066;2022-11-12T09:56:06;10.02;;;6.18;;
65759;SDS011;52496;51.082;5.066;2022-11-12T09:58:40;11.63;;;7.00;;
65759;SDS011;52496;51.082;5.066;2022-11-12T10:01:12;9.55;;;6.43;;
65759;SDS011;52496;51.082;5.066;2022-11-12T10:06:39;10.85;;;7.22;;
65759;SDS011;52496;51.082;5.066;2022-11-12T10:10:12;10.23;;;6.03;;
65759;SDS011;52496;51.082;5.066;2022-11-12T10:21:05;10.63;;;6.43;;
65759;SDS011;52496;51.082;5.066;2022-11-12T10:23:41;8.23;;;4.93;;
65759;SDS011;52496;51.082;5.066;2022-11-12T10:26:16;11.23;;;6.38;;
65759;SDS011;52496;51.082;5.066;2022-11-12T10:28:49;7.68;;;4.90;;
65759;SDS011;52496;51.082;5.066;2022-11-12T10:31:30;10.55;;;5.72;;
65759;SDS011;52496;51.082;5.066;2022-11-12T10:36:49;10.63;;;6.00;;
65759;SDS011;52496;51.082;5.066;2022-11-12T10:39:37;9.02;;;5.05;;
65759;SDS011;52496;51.082;5.066;2022-11-12T10:42:11;9.63;;;4.85;;
65759;SDS011;52496;51.082;5.066;2022-11-12T10:44:51;12.48;;;5.15;;
65759;SDS011;52496;51.082;5.066;2022-11-12T10:52:38;7.78;;;4.80;;
65759;SDS011;52496;51.082;5.066;2022-11-12T10:55:14;9.00;;;5.10;;
65759;SDS011;52496;51.082;5.066;2022-11-12T10:58:00;8.65;;;4.55;;
65759;SDS011;52496;51.082;5.066;2022-11-12T11:03:30;8.10;;;4.55;;
65759;SDS011;52496;51.082;5.066;2022-11-12T11:08:44;7.73;;;5.00;;
65759;SDS011;52496;51.082;5.066;2022-11-12T11:11:24;7.53;;;5.13;;
65759;SDS011;52496;51.082;5.066;2022-11-12T11:14:17;7.13;;;5.13;;
65759;SDS011;52496;51.082;5.066;2022-11-12T11:19:38;10.82;;;4.95;;
65759;SDS011;52496;51.082;5.066;2022-11-12T11:25:30;7.28;;;4.07;;
65759;SDS011;52496;51.082;5.066;2022-11-12T11:30:43;7.85;;;4.45;;
65759;SDS011;52496;51.082;5.066;2022-11-12T11:33:33;7.93;;;4.57;;
65759;SDS011;52496;51.082;5.066;2022-11-12T11:45:46;6.90;;;3.80;;
65759;SDS011;52496;51.082;5.066;2022-11-12T11:51:28;6.63;;;3.78;;
65759;SDS011;52496;51.082;5.066;2022-11-12T11:57:13;7.35;;;3.63;;
65759;SDS011;52496;51.082;5.066;2022-11-12T12:08:10;6.55;;;3.45;;
65759;SDS011;52496;51.082;5.066;2022-11-12T12:10:51;6.35;;;3.50;;
65759;SDS011;52496;51.082;5.066;2022-11-12T12:22:16;6.25;;;3.42;;
65759;SDS011;52496;51.082;5.066;2022-11-12T12:24:58;5.43;;;3.22;;
65759;SDS011;52496;51.082;5.066;2022-11-12T12:27:40;5.57;;;3.42;;
65759;SDS011;52496;51.082;5.066;2022-11-12T12:30:20;6.57;;;3.95;;
65759;SDS011;52496;51.082;5.066;2022-11-12T12:32:54;5.90;;;3.40;;
65759;SDS011;52496;51.082;5.066;2022-11-12T12:35:33;8.25;;;3.50;;
65759;SDS011;52496;51.082;5.066;2022-11-12T12:38:16;6.10;;;3.30;;
65759;SDS011;52496;51.082;5.066;2022-11-12T12:41:04;5.43;;;3.30;;
65759;SDS011;52496;51.082;5.066;2022-11-12T12:44:07;5.68;;;3.00;;
65759;SDS011;52496;51.082;5.066;2022-11-12T12:46:41;5.50;;;3.08;;
65759;SDS011;52496;51.082;5.066;2022-11-12T12:49:16;5.93;;;3.33;;
65759;SDS011;52496;51.082;5.066;2022-11-12T12:51:50;6.30;;;3.38;;
65759;SDS011;52496;51.082;5.066;2022-11-12T12:57:04;7.80;;;3.20;;
65759;SDS011;52496;51.082;5.066;2022-11-12T13:02:58;6.22;;;3.67;;
65759;SDS011;52496;51.082;5.066;2022-11-12T13:05:29;6.88;;;3.45;;
65759;SDS011;52496;51.082;5.066;2022-11-12T13:08:10;5.75;;;2.92;;
65759;SDS011;52496;51.082;5.066;2022-11-12T13:15:47;5.60;;;3.45;;
65759;SDS011;52496;51.082;5.066;2022-11-12T13:23:44;6.38;;;3.55;;
65759;SDS011;52496;51.082;5.066;2022-11-12T13:29:22;13.63;;;4.68;;
65759;SDS011;52496;51.082;5.066;2022-11-12T13:43:12;5.75;;;3.17;;
65759;SDS011;52496;51.082;5.066;2022-11-12T13:46:00;5.68;;;2.85;;
65759;SDS011;52496;51.082;5.066;2022-11-12T13:48:51;5.85;;;3.38;;
65759;SDS011;52496;51.082;5.066;2022-11-12T13:51:33;5.75;;;2.90;;
65759;SDS011;52496;51.082;5.066;2022-11-12T14:00:38;5.70;;;3.03;;
65759;SDS011;52496;51.082;5.066;2022-11-12T14:02:55;5.63;;;3.08;;
65759;SDS011;52496;51.082;5.066;2022-11-12T14:05:32;6.93;;;3.08;;
65759;SDS011;52496;51.082;5.066;2022-11-12T14:11:06;5.13;;;3.10;;
65759;SDS011;52496;51.082;5.066;2022-11-12T14:16:56;8.40;;;3.75;;
65759;SDS011;52496;51.082;5.066;2022-11-12T14:20:07;9.02;;;3.25;;
65759;SDS011;52496;51.082;5.066;2022-11-12T14:22:44;5.97;;;3.35;;
65759;SDS011;52496;51.082;5.066;2022-11-12T14:25:19;4.68;;;2.53;;
65759;SDS011;52496;51.082;5.066;2022-11-12T14:27:53;5.95;;;2.88;;
65759;SDS011;52496;51.082;5.066;2022-11-12T14:30:26;5.40;;;2.90;;
65759;SDS011;52496;51.082;5.066;2022-11-12T14:33:07;5.32;;;2.90;;
65759;SDS011;52496;51.082;5.066;2022-11-12T14:35:39;5.90;;;2.97;;
65759;SDS011;52496;51.082;5.066;2022-11-12T14:40:57;5.90;;;3.15;;
65759;SDS011;52496;51.082;5.066;2022-11-12T14:46:02;5.25;;;3.42;;
65759;SDS011;52496;51.082;5.066;2022-11-12T14:48:50;6.68;;;3.45;;
65759;SDS011;52496;51.082;5.066;2022-11-12T14:51:24;5.85;;;3.10;;
65759;SDS011;52496;51.082;5.066;2022-11-12T14:54:03;8.38;;;3.38;;
65759;SDS011;52496;51.082;5.066;2022-11-12T14:56:41;6.35;;;2.78;;
65759;SDS011;52496;51.082;5.066;2022-11-12T14:59:16;5.47;;;3.15;;
65759;SDS011;52496;51.082;5.066;2022-11-12T15:04:36;6.65;;;2.70;;
65759;SDS011;52496;51.082;5.066;2022-11-12T15:10:26;5.03;;;2.85;;
65759;SDS011;52496;51.082;5.066;2022-11-12T15:13:07;7.25;;;3.08;;
65759;SDS011;52496;51.082;5.066;2022-11-12T15:15:49;4.88;;;2.90;;
65759;SDS011;52496;51.082;5.066;2022-11-12T15:18:23;6.93;;;2.70;;
65759;SDS011;52496;51.082;5.066;2022-11-12T15:21:03;6.85;;;2.80;;
65759;SDS011;52496;51.082;5.066;2022-11-12T15:26:42;5.25;;;2.90;;
65759;SDS011;52496;51.082;5.066;2022-11-12T15:37:04;4.10;;;2.40;;
65759;SDS011;52496;51.082;5.066;2022-11-12T15:39:44;7.15;;;3.17;;
65759;SDS011;52496;51.082;5.066;2022-11-12T15:45:00;5.60;;;3.10;;
65759;SDS011;52496;51.082;5.066;2022-11-12T15:47:38;7.15;;;3.38;;
65759;SDS011;52496;51.082;5.066;2022-11-12T15:50:16;7.22;;;3.10;;
65759;SDS011;52496;51.082;5.066;2022-11-12T15:52:48;7.55;;;3.40;;
65759;SDS011;52496;51.082;5.066;2022-11-12T15:55:19;6.15;;;3.00;;
65759;SDS011;52496;51.082;5.066;2022-11-12T15:57:50;5.70;;;3.10;;
65759;SDS011;52496;51.082;5.066;2022-11-12T16:00:22;8.10;;;3.40;;
65759;SDS011;52496;51.082;5.066;2022-11-12T16:02:58;5.40;;;3.10;;
65759;SDS011;52496;51.082;5.066;2022-11-12T16:05:41;5.03;;;3.08;;
65759;SDS011;52496;51.082;5.066;2022-11-12T16:08:12;8.70;;;3.58;;
65759;SDS011;52496;51.082;5.066;2022-11-12T16:10:43;6.60;;;3.45;;
65759;SDS011;52496;51.082;5.066;2022-11-12T16:13:19;7.95;;;3.28;;
65759;SDS011;52496;51.082;5.066;2022-11-12T16:15:56;7.13;;;3.40;;
65759;SDS011;52496;51.082;5.066;2022-11-12T16:18:26;7.07;;;3.88;;
65759;SDS011;52496;51.082;5.066;2022-11-12T16:20:57;9.10;;;3.50;;
65759;SDS011;52496;51.082;5.066;2022-11-12T16:23:27;7.15;;;3.13;;
65759;SDS011;52496;51.082;5.066;2022-11-12T16:25:57;8.00;;;3.72;;
65759;SDS011;52496;51.082;5.066;2022-11-12T16:28:29;7.15;;;3.90;;
65759;SDS011;52496;51.082;5.066;2022-11-12T16:30:59;9.57;;;4.30;;
65759;SDS011;52496;51.082;5.066;2022-11-12T16:33:30;7.78;;;3.90;;
65759;SDS011;52496;51.082;5.066;2022-11-12T16:36:00;6.40;;;3.85;;
65759;SDS011;52496;51.082;5.066;2022-11-12T16:38:31;7.72;;;4.10;;
65759;SDS011;52496;51.082;5.066;2022-11-12T16:41:01;7.20;;;3.80;;
65759;SDS011;52496;51.082;5.066;2022-11-12T16:43:32;7.72;;;4.40;;
65759;SDS011;52496;51.082;5.066;2022-11-12T16:46:05;11.35;;;4.63;;
65759;SDS011;52496;51.082;5.066;2022-11-12T16:48:42;11.40;;;5.32;;
65759;SDS011;52496;51.082;5.066;2022-11-12T16:51:13;8.05;;;5.10;;
65759;SDS011;52496;51.082;5.066;2022-11-12T16:53:46;9.52;;;5.60;;
65759;SDS011;52496;51.082;5.066;2022-11-12T16:56:18;11.13;;;6.07;;
65759;SDS011;52496;51.082;5.066;2022-11-12T16:58:50;9.85;;;6.07;;
65759;SDS011;52496;51.082;5.066;2022-11-12T17:01:24;10.05;;;6.88;;
65759;SDS011;52496;51.082;5.066;2022-11-12T17:03:57;11.30;;;6.38;;
65759;SDS011;52496;51.082;5.066;2022-11-12T17:06:37;10.70;;;6.78;;
65759;SDS011;52496;51.082;5.066;2022-11-12T17:09:09;11.18;;;6.78;;
65759;SDS011;52496;51.082;5.066;2022-11-12T17:11:40;10.25;;;7.18;;
65759;SDS011;52496;51.082;5.066;2022-11-12T17:14:11;11.18;;;6.88;;
65759;SDS011;52496;51.082;5.066;2022-11-12T17:16:42;13.27;;;7.88;;
65759;SDS011;52496;51.082;5.066;2022-11-12T17:19:13;12.63;;;6.85;;
65759;SDS011;52496;51.082;5.066;2022-11-12T17:21:44;12.23;;;7.15;;
65759;SDS011;52496;51.082;5.066;2022-11-12T17:24:15;11.80;;;7.40;;
65759;SDS011;52496;51.082;5.066;2022-11-12T17:26:45;13.43;;;7.60;;